createdAt,value
2023-09-04T00:00:21.214Z,3.50
2023-09-04T00:03:16.386Z,4.10
2023-09-04T00:05:51.092Z,3.60
2023-09-04T00:08:26.647Z,3.70
2023-09-04T00:11:01.269Z,3.20
2023-09-04T00:13:37.418Z,3.50
2023-09-04T00:16:11.759Z,3.60
2023-09-04T00:18:46.414Z,3.90
2023-09-04T00:21:20.842Z,3.40
2023-09-04T00:23:55.172Z,3.00
2023-09-04T00:26:29.644Z,3.20
2023-09-04T00:29:03.937Z,2.70
2023-09-04T00:31:38.396Z,2.90
2023-09-04T00:34:12.583Z,3.30
2023-09-04T00:36:46.959Z,3.30
2023-09-04T00:39:21.219Z,3.00
2023-09-04T00:41:57.308Z,3.10
2023-09-04T00:44:31.522Z,3.10
2023-09-04T00:47:06.647Z,3.00
2023-09-04T00:49:44.015Z,2.70
2023-09-04T00:52:19.981Z,3.30
2023-09-04T00:54:55.438Z,2.90
2023-09-04T00:57:30.184Z,3.00
2023-09-04T01:00:12.102Z,3.20
2023-09-04T01:02:47.101Z,3.20
2023-09-04T01:05:22.945Z,3.60
2023-09-04T01:07:57.590Z,2.70
2023-09-04T01:10:41.873Z,2.70
2023-09-04T01:13:24.859Z,2.80
2023-09-04T01:16:02.228Z,2.70
2023-09-04T01:18:38.507Z,2.90
2023-09-04T01:21:12.901Z,2.90
2023-09-04T01:23:47.528Z,3.00
2023-09-04T01:26:35.162Z,2.40
2023-09-04T01:29:23.073Z,3.00
2023-09-04T01:32:09.156Z,2.60
2023-09-04T01:34:51.011Z,3.10
2023-09-04T01:37:27.729Z,2.80
2023-09-04T01:40:04.405Z,3.30
2023-09-04T01:42:40.144Z,3.20
2023-09-04T01:45:15.695Z,2.50
2023-09-04T01:47:50.137Z,2.80
2023-09-04T01:50:24.613Z,2.70
2023-09-04T01:52:58.933Z,2.80
2023-09-04T01:55:34.087Z,2.90
2023-09-04T01:58:08.525Z,2.70
2023-09-04T02:00:44.622Z,3.00
2023-09-04T02:03:18.916Z,2.80
2023-09-04T02:05:53.333Z,2.90
2023-09-04T02:08:27.772Z,2.80
2023-09-04T02:11:03.370Z,3.00
2023-09-04T02:13:37.594Z,2.70
2023-09-04T02:16:12.139Z,2.80
2023-09-04T02:18:46.606Z,2.60
2023-09-04T02:21:21.594Z,2.60
2023-09-04T02:23:56.133Z,2.60
2023-09-04T02:26:30.447Z,2.70
2023-09-04T02:29:04.677Z,3.50
2023-09-04T02:31:38.894Z,2.70
2023-09-04T02:34:14.035Z,2.50
2023-09-04T02:36:48.421Z,2.60
2023-09-04T02:39:22.773Z,2.70
2023-09-04T02:41:57.394Z,2.80
2023-09-04T02:44:31.732Z,2.70
2023-09-04T02:47:06.189Z,2.90
2023-09-04T02:49:40.834Z,2.70
2023-09-04T02:52:15.640Z,3.10
2023-09-04T02:54:50.091Z,2.70
2023-09-04T02:57:24.266Z,2.90
2023-09-04T02:59:58.934Z,2.50
2023-09-04T03:02:33.289Z,2.60
2023-09-04T03:05:11.074Z,2.60
2023-09-04T03:07:45.524Z,2.90
2023-09-04T03:10:20.958Z,2.90
2023-09-04T03:12:56.150Z,3.00
2023-09-04T03:15:32.082Z,3.10
2023-09-04T03:18:07.553Z,3.20
2023-09-04T03:20:42.216Z,2.80
2023-09-04T03:23:16.598Z,2.80
2023-09-04T03:25:50.983Z,2.60
2023-09-04T03:28:25.749Z,2.50
2023-09-04T03:31:01.303Z,3.10
2023-09-04T03:33:35.606Z,2.90
2023-09-04T03:36:12.506Z,3.40
2023-09-04T03:38:47.058Z,2.80
2023-09-04T03:41:21.302Z,3.00
2023-09-04T03:43:56.798Z,3.20
2023-09-04T03:46:31.183Z,2.80
2023-09-04T03:49:05.490Z,2.80
2023-09-04T03:51:40.158Z,3.20
2023-09-04T03:54:15.202Z,3.10
2023-09-04T03:56:49.707Z,3.20
2023-09-04T03:59:24.087Z,3.50
2023-09-04T04:01:58.385Z,3.30
2023-09-04T04:04:33.609Z,2.50
2023-09-04T04:07:09.524Z,2.90
2023-09-04T04:09:44.654Z,2.90
2023-09-04T04:12:19.584Z,2.90
2023-09-04T04:14:59.144Z,2.70
2023-09-04T04:17:33.571Z,2.90
2023-09-04T04:20:11.989Z,3.30
2023-09-04T04:22:46.966Z,3.20
2023-09-04T04:25:21.518Z,2.90
2023-09-04T04:27:55.790Z,2.90
2023-09-04T04:30:30.179Z,2.90
2023-09-04T04:33:04.693Z,3.20
2023-09-04T04:35:39.040Z,2.80
2023-09-04T04:38:13.676Z,3.00
2023-09-04T04:40:48.269Z,2.70
2023-09-04T04:43:22.744Z,2.90
2023-09-04T04:45:57.286Z,2.90
2023-09-04T04:48:31.846Z,3.30
2023-09-04T04:51:07.041Z,2.80
2023-09-04T04:53:41.869Z,2.90
2023-09-04T04:56:17.797Z,2.70
2023-09-04T04:58:52.965Z,2.90
2023-09-04T05:01:27.273Z,3.00
2023-09-04T05:04:03.312Z,3.30
2023-09-04T05:06:37.705Z,2.50
2023-09-04T05:09:12.216Z,2.90
2023-09-04T05:11:46.944Z,2.70
2023-09-04T05:14:21.400Z,3.30
2023-09-04T05:16:55.852Z,3.40
2023-09-04T05:19:31.934Z,4.60
2023-09-04T05:22:06.774Z,3.80
2023-09-04T05:24:41.638Z,3.30
2023-09-04T05:27:16.194Z,3.00
2023-09-04T05:29:50.922Z,3.10
2023-09-04T05:32:25.373Z,2.90
2023-09-04T05:35:00.570Z,2.90
2023-09-04T05:37:35.501Z,2.70
2023-09-04T05:40:13.687Z,2.90
2023-09-04T05:42:48.304Z,2.90
2023-09-04T05:45:22.887Z,2.70
2023-09-04T05:47:57.708Z,3.00
2023-09-04T05:50:32.252Z,2.50
2023-09-04T05:53:07.090Z,2.70
2023-09-04T05:55:44.823Z,2.50
2023-09-04T05:58:19.369Z,2.40
2023-09-04T06:00:53.815Z,2.50
2023-09-04T06:03:28.609Z,2.50
2023-09-04T06:06:03.547Z,2.80
2023-09-04T06:08:38.759Z,2.90
2023-09-04T06:11:13.566Z,2.90
2023-09-04T06:13:50.753Z,2.60
2023-09-04T06:16:26.543Z,2.80
2023-09-04T06:19:01.424Z,2.70
2023-09-04T06:21:35.914Z,2.60
2023-09-04T06:24:10.935Z,2.80
2023-09-04T06:26:45.616Z,2.70
2023-09-04T06:29:20.620Z,2.40
2023-09-04T06:31:54.975Z,2.60
2023-09-04T06:34:30.102Z,2.30
2023-09-04T06:37:04.339Z,2.50
2023-09-04T06:39:38.676Z,2.00
2023-09-04T06:42:14.066Z,2.10
2023-09-04T06:44:48.795Z,2.70
2023-09-04T06:47:23.283Z,2.50
2023-09-04T06:49:59.955Z,2.60
2023-09-04T06:52:34.591Z,2.30
2023-09-04T06:55:11.315Z,2.50
2023-09-04T06:57:45.672Z,2.20
2023-09-04T07:00:22.320Z,2.40
2023-09-04T07:02:56.831Z,2.20
2023-09-04T07:05:31.522Z,2.00
2023-09-04T07:08:06.779Z,2.10
2023-09-04T07:10:41.296Z,1.80
2023-09-04T07:13:15.995Z,1.80
2023-09-04T07:15:50.529Z,1.70
2023-09-04T07:18:25.284Z,1.40
2023-09-04T07:21:01.165Z,1.70
2023-09-04T07:23:36.377Z,1.50
2023-09-04T07:26:11.317Z,1.40
2023-09-04T07:28:47.063Z,1.40
2023-09-04T07:31:24.332Z,1.30
2023-09-04T07:33:59.052Z,1.30
2023-09-04T07:36:33.483Z,1.60
2023-09-04T07:39:09.253Z,1.40
2023-09-04T07:41:43.719Z,1.60
2023-09-04T07:44:18.364Z,1.60
2023-09-04T07:46:54.113Z,1.30
2023-09-04T07:49:30.823Z,1.30
2023-09-04T07:52:06.172Z,1.80
2023-09-04T07:54:40.762Z,1.70
2023-09-04T07:57:15.472Z,1.40
2023-09-04T07:59:52.609Z,1.50
2023-09-04T08:02:28.621Z,1.70
2023-09-04T08:05:03.503Z,1.40
2023-09-04T08:07:37.971Z,2.00
2023-09-04T08:10:14.732Z,1.20
2023-09-04T08:12:51.016Z,1.40
2023-09-04T08:15:25.638Z,1.30
2023-09-04T08:18:00.563Z,2.30
2023-09-04T08:20:35.028Z,2.20
2023-09-04T08:23:10.964Z,2.10
2023-09-04T08:25:45.528Z,1.50
2023-09-04T08:28:20.215Z,1.60
2023-09-04T08:30:54.884Z,1.40
2023-09-04T08:33:29.594Z,1.60
2023-09-04T08:36:07.362Z,1.40
2023-09-04T08:38:42.695Z,1.40
2023-09-04T08:41:22.979Z,1.20
2023-09-04T08:43:59.576Z,1.50
2023-09-04T08:46:36.554Z,1.30
2023-09-04T08:49:11.937Z,1.50
2023-09-04T08:51:47.246Z,1.70
2023-09-04T08:54:22.117Z,1.10
2023-09-04T08:56:59.059Z,1.20
2023-09-04T08:59:34.541Z,0.90
2023-09-04T09:02:15.276Z,1.20
2023-09-04T09:04:51.051Z,1.10
2023-09-04T09:07:28.348Z,1.20
2023-09-04T09:10:08.879Z,1.40
2023-09-04T09:12:44.638Z,1.50
2023-09-04T09:15:19.752Z,1.30
2023-09-04T09:18:00.266Z,1.00
2023-09-04T09:20:40.373Z,1.60
2023-09-04T09:23:18.604Z,1.80
2023-09-04T09:26:00.084Z,1.60
2023-09-04T09:28:36.690Z,1.40
2023-09-04T09:31:13.756Z,1.10
2023-09-04T09:33:50.719Z,1.60
2023-09-04T09:36:25.617Z,1.30
2023-09-04T09:39:00.500Z,1.70
2023-09-04T09:41:36.176Z,1.70
2023-09-04T09:44:11.113Z,1.50
2023-09-04T09:46:49.025Z,1.30
2023-09-04T09:49:25.055Z,1.30
2023-09-04T09:52:00.443Z,1.10
2023-09-04T09:54:42.680Z,2.00
2023-09-04T09:57:19.865Z,1.90
2023-09-04T09:59:55.051Z,3.70
2023-09-04T10:02:30.113Z,1.70
2023-09-04T10:05:06.436Z,1.50
2023-09-04T10:07:44.201Z,1.50
2023-09-04T10:10:20.393Z,1.80
2023-09-04T10:13:04.029Z,2.50
2023-09-04T10:15:42.825Z,2.50
2023-09-04T10:18:28.190Z,1.60
2023-09-04T10:21:06.533Z,3.20
2023-09-04T10:23:55.732Z,2.00
2023-09-04T10:26:38.425Z,2.20
2023-09-04T10:29:19.374Z,1.30
2023-09-04T10:31:57.617Z,1.50
2023-09-04T10:34:33.349Z,1.00
2023-09-04T10:37:08.796Z,1.10
2023-09-04T10:39:49.371Z,1.40
2023-09-04T10:42:30.190Z,1.30
2023-09-04T10:45:19.888Z,1.10
2023-09-04T10:47:55.907Z,1.40
2023-09-04T10:50:36.472Z,2.00
2023-09-04T10:53:11.913Z,1.70
2023-09-04T10:56:15.938Z,2.30
2023-09-04T10:59:05.729Z,1.10
2023-09-04T11:01:42.164Z,1.30
2023-09-04T11:04:32.452Z,2.00
2023-09-04T11:07:31.703Z,1.80
2023-09-04T11:10:41.830Z,1.60
2023-09-04T11:13:19.399Z,1.60
2023-09-04T11:15:58.870Z,1.80
2023-09-04T11:18:37.650Z,1.30
2023-09-04T11:21:15.743Z,1.30
2023-09-04T11:23:52.404Z,1.60
2023-09-04T11:26:28.892Z,1.60
2023-09-04T11:29:08.310Z,1.60
2023-09-04T11:31:55.301Z,1.00
2023-09-04T11:34:38.257Z,2.40
2023-09-04T11:37:12.991Z,1.10
2023-09-04T11:40:04.940Z,2.20
2023-09-04T11:42:40.891Z,1.30
2023-09-04T11:45:16.259Z,1.30
2023-09-04T11:47:52.004Z,3.50
2023-09-04T11:50:26.642Z,1.80
2023-09-04T11:53:02.447Z,1.50
2023-09-04T11:55:37.829Z,1.80
2023-09-04T11:58:12.802Z,2.40
2023-09-04T12:00:49.482Z,1.40
2023-09-04T12:03:24.373Z,1.50
2023-09-04T12:05:59.766Z,2.10
2023-09-04T12:08:35.564Z,1.90
2023-09-04T12:11:10.033Z,4.30
2023-09-04T12:13:46.283Z,2.80
2023-09-04T12:16:22.661Z,1.70
2023-09-04T12:18:58.758Z,2.00
2023-09-04T12:21:34.190Z,5.80
2023-09-04T12:24:19.462Z,3.80
2023-09-04T12:26:54.807Z,4.00
2023-09-04T12:29:31.619Z,4.60
2023-09-04T12:32:08.885Z,4.70
2023-09-04T12:34:44.244Z,2.30
2023-09-04T12:37:19.735Z,2.80
2023-09-04T12:39:54.306Z,1.30
2023-09-04T12:42:29.485Z,1.30
2023-09-04T12:45:07.596Z,3.00
2023-09-04T12:47:43.150Z,3.80
2023-09-04T12:50:18.095Z,3.70
2023-09-04T12:52:55.570Z,4.00
2023-09-04T12:55:33.322Z,3.50
2023-09-04T12:58:15.483Z,1.00
2023-09-04T13:00:51.878Z,3.70
2023-09-04T13:03:28.090Z,3.70
2023-09-04T13:06:03.272Z,6.40
2023-09-04T13:08:38.287Z,4.60
2023-09-04T13:11:13.633Z,4.20
2023-09-04T13:13:48.860Z,2.00
2023-09-04T13:16:26.371Z,4.20
2023-09-04T13:19:01.191Z,4.80
2023-09-04T13:21:36.136Z,3.40
2023-09-04T13:24:12.148Z,2.80
2023-09-04T13:26:47.349Z,3.60
2023-09-04T13:29:21.960Z,5.30
2023-09-04T13:31:56.503Z,3.30
2023-09-04T13:34:30.942Z,2.90
2023-09-04T13:37:05.947Z,3.20
2023-09-04T13:39:41.214Z,1.40
2023-09-04T13:42:16.253Z,1.20
2023-09-04T13:44:51.348Z,3.00
2023-09-04T13:47:28.005Z,3.30
2023-09-04T13:50:03.161Z,1.70
2023-09-04T13:52:37.747Z,2.30
2023-09-04T13:55:14.393Z,2.60
2023-09-04T13:57:49.088Z,1.10
2023-09-04T14:00:24.657Z,1.50
2023-09-04T14:02:59.755Z,2.30
2023-09-04T14:05:36.406Z,3.30
2023-09-04T14:08:13.162Z,4.30
2023-09-04T14:10:50.240Z,4.00
2023-09-04T14:13:25.466Z,4.90
2023-09-04T14:16:00.250Z,2.40
2023-09-04T14:18:34.944Z,2.40
2023-09-04T14:21:10.181Z,3.90
2023-09-04T14:23:47.212Z,6.50
2023-09-04T14:26:23.710Z,6.10
2023-09-04T14:28:58.599Z,7.10
2023-09-04T14:31:34.388Z,4.20
2023-09-04T14:34:11.235Z,3.90
2023-09-04T14:37:07.893Z,2.40
2023-09-04T14:39:42.120Z,4.90
2023-09-04T14:42:16.994Z,4.50
2023-09-04T14:44:55.790Z,4.70
2023-09-04T14:47:31.302Z,3.20
2023-09-04T14:50:06.950Z,3.80
2023-09-04T14:52:41.698Z,10.50
2023-09-04T14:55:16.701Z,2.60
2023-09-04T14:57:55.173Z,2.10
2023-09-04T15:00:31.179Z,6.60
2023-09-04T15:03:06.182Z,8.10
2023-09-04T15:05:44.769Z,2.30
2023-09-04T15:08:20.494Z,1.70
2023-09-04T15:10:55.032Z,1.80
2023-09-04T15:13:30.447Z,4.40
2023-09-04T15:16:06.465Z,2.00
2023-09-04T15:18:42.840Z,5.50
2023-09-04T15:21:17.736Z,3.60
2023-09-04T15:23:53.874Z,2.70
2023-09-04T15:26:29.313Z,4.80
2023-09-04T15:29:03.870Z,4.00
2023-09-04T15:31:38.542Z,3.80
2023-09-04T15:34:13.893Z,1.80
2023-09-04T15:36:48.391Z,1.80
2023-09-04T15:39:22.929Z,2.10
2023-09-04T15:41:57.602Z,5.30
2023-09-04T15:44:35.934Z,4.80
2023-09-04T15:47:11.261Z,10.20
2023-09-04T15:49:46.457Z,10.90
2023-09-04T15:52:21.299Z,6.30
2023-09-04T15:54:56.644Z,4.00
2023-09-04T15:57:31.106Z,8.10
2023-09-04T16:00:07.785Z,9.70
2023-09-04T16:02:55.572Z,8.00
2023-09-04T16:05:30.567Z,3.00
2023-09-04T16:08:05.622Z,3.60
2023-09-04T16:10:40.265Z,3.00
2023-09-04T16:13:20.911Z,2.30
2023-09-04T16:15:56.111Z,2.40
2023-09-04T16:18:31.988Z,3.90
2023-09-04T16:21:08.329Z,3.90
2023-09-04T16:23:43.384Z,6.70
2023-09-04T16:26:18.285Z,2.80
2023-09-04T16:28:53.064Z,5.80
2023-09-04T16:31:30.523Z,7.40
2023-09-04T16:34:06.178Z,5.80
2023-09-04T16:36:40.937Z,3.20
2023-09-04T16:39:15.893Z,3.20
2023-09-04T16:41:50.489Z,3.10
2023-09-04T16:44:25.352Z,1.60
2023-09-04T16:47:00.118Z,2.00
2023-09-04T16:49:35.010Z,2.40
2023-09-04T16:52:11.139Z,3.00
2023-09-04T16:54:48.410Z,8.10
2023-09-04T16:57:24.097Z,7.80
2023-09-04T16:59:58.862Z,5.30
2023-09-04T17:02:33.452Z,4.70
2023-09-04T17:05:10.070Z,5.40
2023-09-04T17:07:44.987Z,3.10
2023-09-04T17:10:20.550Z,4.50
2023-09-04T17:12:55.241Z,2.10
2023-09-04T17:15:30.800Z,2.40
2023-09-04T17:18:06.968Z,2.40
2023-09-04T17:20:42.594Z,4.90
2023-09-04T17:23:18.394Z,2.50
2023-09-04T17:25:53.380Z,3.00
2023-09-04T17:28:28.702Z,2.20
2023-09-04T17:31:08.655Z,2.10
2023-09-04T17:33:43.614Z,1.90
2023-09-04T17:36:18.434Z,1.90
2023-09-04T17:38:53.177Z,1.80
2023-09-04T17:41:27.705Z,1.60
2023-09-04T17:44:03.021Z,1.90
2023-09-04T17:46:38.079Z,1.80
2023-09-04T17:49:13.187Z,2.30
2023-09-04T17:51:47.908Z,2.00
2023-09-04T17:54:22.802Z,1.90
2023-09-04T17:56:57.856Z,2.20
2023-09-04T17:59:32.793Z,1.70
2023-09-04T18:02:08.079Z,1.90
2023-09-04T18:04:42.959Z,1.90
2023-09-04T18:07:17.772Z,1.80
2023-09-04T18:09:52.825Z,1.90
2023-09-04T18:12:27.987Z,1.90
2023-09-04T18:15:03.405Z,1.90
2023-09-04T18:17:38.715Z,2.10
2023-09-04T18:20:15.529Z,3.80
2023-09-04T18:22:50.797Z,2.50
2023-09-04T18:25:25.814Z,1.90
2023-09-04T18:28:02.028Z,1.90
2023-09-04T18:30:37.346Z,2.10
2023-09-04T18:33:13.097Z,1.70
2023-09-04T18:35:50.461Z,1.80
2023-09-04T18:38:25.425Z,1.70
2023-09-04T18:41:00.089Z,1.70
2023-09-04T18:43:35.937Z,1.60
2023-09-04T18:46:11.093Z,1.70
2023-09-04T18:48:45.976Z,2.20
2023-09-04T18:51:20.667Z,2.60
2023-09-04T18:53:55.479Z,2.40
2023-09-04T18:56:30.064Z,2.00
2023-09-04T18:59:05.368Z,2.50
2023-09-04T19:01:41.018Z,2.10
2023-09-04T19:04:15.634Z,2.10
2023-09-04T19:06:50.495Z,2.60
2023-09-04T19:09:25.522Z,3.10
2023-09-04T19:12:00.550Z,3.20
2023-09-04T19:14:35.517Z,3.10
2023-09-04T19:17:11.131Z,3.00
2023-09-04T19:19:46.498Z,3.40
2023-09-04T19:22:21.685Z,4.00
2023-09-04T19:24:56.680Z,4.50
2023-09-04T19:27:31.223Z,4.20
2023-09-04T19:30:06.523Z,4.40
2023-09-04T19:32:41.338Z,4.70
2023-09-04T19:35:16.420Z,5.00
2023-09-04T19:37:51.036Z,4.60
2023-09-04T19:40:25.880Z,4.50
2023-09-04T19:43:00.597Z,4.40
2023-09-04T19:45:35.088Z,4.60
2023-09-04T19:48:10.674Z,4.70
2023-09-04T19:50:46.269Z,4.90
2023-09-04T19:53:22.567Z,4.00
2023-09-04T19:55:57.611Z,4.10
2023-09-04T19:58:33.024Z,4.40
2023-09-04T20:01:10.131Z,4.30
2023-09-04T20:03:45.424Z,4.20
2023-09-04T20:06:22.413Z,4.90
2023-09-04T20:08:57.179Z,4.40
2023-09-04T20:11:32.619Z,3.90
2023-09-04T20:14:08.271Z,5.10
2023-09-04T20:16:48.238Z,4.50
2023-09-04T20:19:24.813Z,4.00
2023-09-04T20:21:59.717Z,4.10
2023-09-04T20:24:34.695Z,3.70
2023-09-04T20:27:10.424Z,4.20
2023-09-04T20:29:45.264Z,4.00
2023-09-04T20:32:22.729Z,3.60
2023-09-04T20:34:58.262Z,3.00
2023-09-04T20:37:36.384Z,3.10
2023-09-04T20:40:14.307Z,3.40
2023-09-04T20:42:49.067Z,3.20
2023-09-04T20:45:24.439Z,4.00
2023-09-04T20:47:59.371Z,4.30
2023-09-04T20:50:34.688Z,4.80
2023-09-04T20:53:11.130Z,4.10
2023-09-04T20:55:47.621Z,4.10
2023-09-04T20:58:22.333Z,4.50
2023-09-04T21:00:57.376Z,4.10
2023-09-04T21:03:31.947Z,4.80
2023-09-04T21:06:07.826Z,4.40
2023-09-04T21:08:41.239Z,4.90
2023-09-04T21:11:14.917Z,3.90
2023-09-04T21:14:22.818Z,4.10
2023-09-04T21:17:14.798Z,4.10
2023-09-04T21:20:07.080Z,3.20
2023-09-04T21:22:59.489Z,3.80
2023-09-04T21:25:54.510Z,3.50
2023-09-04T21:28:47.068Z,3.00
2023-09-04T21:31:39.380Z,3.20
2023-09-04T21:34:31.528Z,3.00
2023-09-04T21:37:24.083Z,2.80
2023-09-04T21:40:16.029Z,2.80
2023-09-04T21:43:08.443Z,2.70
2023-09-04T21:46:01.964Z,2.90
2023-09-04T21:48:54.485Z,2.80
2023-09-04T21:51:46.613Z,3.00
2023-09-04T21:54:38.813Z,3.00
2023-09-04T21:57:31.589Z,3.00
2023-09-04T22:00:24.496Z,2.80
2023-09-04T22:03:17.754Z,2.90
2023-09-04T22:06:09.916Z,2.80
2023-09-04T22:09:02.370Z,2.90
2023-09-04T22:11:54.444Z,2.90
2023-09-04T22:14:46.750Z,2.60
2023-09-04T22:17:39.047Z,2.70
2023-09-04T22:20:32.468Z,2.50
2023-09-04T22:23:24.873Z,3.00
2023-09-04T22:26:17.345Z,3.50
2023-09-04T22:29:09.630Z,3.40
2023-09-04T22:32:02.035Z,3.20
2023-09-04T22:34:54.369Z,3.00
2023-09-04T22:37:47.558Z,3.00
2023-09-04T22:40:45.586Z,3.30
2023-09-04T22:43:37.429Z,3.60
2023-09-04T22:46:29.341Z,3.50
2023-09-04T22:49:21.666Z,3.80
2023-09-04T22:52:13.935Z,3.20
2023-09-04T22:55:06.803Z,3.40
2023-09-04T22:57:59.740Z,3.40
2023-09-04T23:00:51.952Z,3.30
2023-09-04T23:03:44.151Z,3.20
2023-09-04T23:06:36.205Z,3.60
2023-09-04T23:09:28.497Z,3.40
2023-09-04T23:12:20.564Z,3.60
2023-09-04T23:15:13.095Z,3.50
2023-09-04T23:18:05.114Z,3.10
2023-09-04T23:20:57.450Z,3.30
2023-09-04T23:23:36.978Z,3.30
2023-09-04T23:26:12.031Z,3.10
2023-09-04T23:28:50.021Z,3.30
2023-09-04T23:31:25.441Z,3.40
2023-09-04T23:34:01.203Z,3.20
2023-09-04T23:36:48.634Z,3.00
2023-09-04T23:39:41.285Z,3.80
2023-09-04T23:42:35.579Z,4.20
2023-09-04T23:45:12.647Z,3.40
2023-09-04T23:47:49.749Z,3.70
2023-09-04T23:50:25.658Z,3.30
2023-09-04T23:53:00.359Z,4.00
2023-09-04T23:55:35.002Z,3.70
2023-09-04T23:58:09.889Z,3.30
